createdAt,value
2017-06-30T15:22:38.117Z,27.61
2017-06-30T15:23:37.014Z,27.91
2017-06-30T15:24:37.016Z,28.19
2017-06-30T15:25:37.017Z,27.61
2017-06-30T15:26:37.020Z,28
2017-06-30T15:27:37.022Z,26.74
2017-06-30T15:28:37.026Z,27.81
2017-06-30T15:29:36.717Z,26.93
2017-06-30T15:30:36.720Z,27.13
2017-06-30T15:31:36.727Z,27.51
2017-06-30T15:32:37.045Z,27.51
2017-06-30T15:33:37.049Z,27.14
2017-06-30T15:34:37.061Z,27.62
2017-06-30T15:35:37.063Z,26.65
2017-06-30T15:36:37.092Z,26.65
2017-06-30T15:37:38.725Z,26.27
2017-06-30T15:38:37.084Z,26.75
2017-06-30T15:39:36.766Z,27.14
2017-06-30T15:40:36.775Z,27.53
2017-06-30T15:41:36.800Z,27.72
2017-06-30T15:42:37.099Z,26.46
2017-06-30T15:43:37.106Z,26.37
2017-06-30T15:44:36.791Z,26.17
2017-06-30T15:45:37.111Z,26.46
2017-06-30T15:46:37.119Z,26.56
2017-06-30T15:47:37.124Z,26.75
2017-06-30T15:48:37.127Z,26.46
2017-06-30T15:49:37.132Z,26.65
2017-06-30T15:50:37.146Z,26.85
2017-06-30T15:51:37.161Z,26.75
2017-06-30T15:52:37.151Z,26.64
2017-06-30T15:53:37.165Z,26.35
2017-06-30T15:54:37.161Z,26.45
2017-06-30T15:55:37.166Z,26.35
2017-06-30T15:56:37.173Z,26.64
2017-06-30T15:57:36.863Z,26.74
2017-06-30T15:58:37.183Z,26.74
2017-06-30T15:59:37.186Z,26.64
2017-06-30T16:00:37.198Z,26.64
2017-06-30T16:01:36.887Z,26.84
2017-06-30T16:02:37.204Z,26.84
2017-06-30T16:03:37.211Z,26.74
2017-06-30T16:04:37.218Z,26.65
2017-06-30T16:05:37.230Z,26.95
2017-06-30T16:06:37.226Z,26.46
2017-06-30T16:07:36.921Z,26.75
2017-06-30T16:08:37.242Z,26.46
2017-06-30T16:09:36.933Z,26.65
2017-06-30T16:10:37.261Z,26.95
2017-06-30T16:11:37.262Z,26.07
2017-06-30T16:12:36.949Z,25.59
2017-06-30T16:13:37.267Z,25.78
2017-06-30T16:14:37.279Z,25.41
2017-06-30T16:15:37.309Z,25.59
2017-06-30T16:16:36.972Z,25.68
2017-06-30T16:17:37.316Z,25.2
2017-06-30T16:18:37.309Z,25.49
2017-06-30T16:19:37.329Z,25.2
2017-06-30T16:20:37.310Z,25.59
2017-06-30T16:21:37.004Z,26.06
2017-06-30T16:22:37.319Z,26.17
2017-06-30T16:23:37.327Z,26.17
2017-06-30T16:24:37.329Z,26.06
2017-06-30T16:25:37.334Z,26.46
2017-06-30T16:26:37.339Z,26.56
2017-06-30T16:27:37.345Z,26.46
2017-06-30T16:28:37.349Z,27.14
2017-06-30T16:29:37.356Z,26.07
2017-06-30T16:30:37.362Z,26.27
2017-06-30T16:31:37.375Z,26.09
2017-06-30T16:32:37.373Z,26.18
2017-06-30T16:33:37.385Z,26.07
2017-06-30T16:34:37.387Z,25.89
2017-06-30T16:35:37.084Z,26.57
2017-06-30T16:36:37.402Z,26.28
2017-06-30T16:37:37.429Z,26.17
2017-06-30T16:38:37.464Z,26.85
2017-06-30T16:39:37.422Z,26.27
2017-06-30T16:40:37.421Z,25.68
2017-06-30T16:41:37.430Z,26.27
2017-06-30T16:42:37.430Z,25.98
2017-06-30T16:43:37.438Z,26.56
2017-06-30T16:44:37.443Z,26.54
2017-06-30T16:45:37.135Z,26.54
2017-06-30T16:46:37.452Z,26.45
2017-06-30T16:47:37.457Z,26.54
2017-06-30T16:48:37.465Z,27.01
2017-06-30T16:49:37.468Z,27.6
2017-06-30T16:50:37.475Z,27.5
2017-06-30T16:51:37.479Z,28.08
2017-06-30T16:52:37.484Z,27.89
2017-06-30T16:53:40.795Z,27.6
2017-06-30T16:54:37.493Z,28.18
2017-06-30T16:55:37.187Z,28.28
2017-06-30T16:56:37.504Z,28.47
2017-06-30T16:57:37.202Z,28.28
2017-06-30T16:58:37.521Z,28.08
2017-06-30T16:59:37.207Z,28.28
2017-06-30T17:00:37.529Z,28.94
2017-06-30T17:01:37.534Z,29.13
2017-06-30T17:02:37.536Z,28.76
2017-06-30T17:03:37.547Z,28.76
2017-06-30T17:04:37.235Z,28.76
2017-06-30T17:05:37.553Z,29.53
2017-06-30T17:06:37.556Z,29.44
2017-06-30T17:07:37.248Z,29.24
2017-06-30T17:08:37.570Z,29.44
2017-06-30T17:09:37.586Z,29.53
2017-06-30T17:10:37.583Z,29.52
2017-06-30T17:11:37.284Z,29.71
2017-06-30T17:12:37.587Z,30.2
2017-06-30T17:13:37.281Z,30.2
2017-06-30T17:14:37.597Z,30.1
2017-06-30T17:15:37.604Z,30
2017-06-30T17:16:37.608Z,30.1
2017-06-30T17:17:37.301Z,30.98
2017-06-30T17:18:37.617Z,30.88
2017-06-30T17:19:37.630Z,30.29
2017-06-30T17:20:37.630Z,30.78
2017-06-30T17:21:37.637Z,30.68
2017-06-30T17:22:37.641Z,30.78
2017-06-30T17:23:37.349Z,30.96
2017-06-30T17:24:37.658Z,30.96
2017-06-30T17:25:37.345Z,31.34
2017-06-30T17:26:37.661Z,31.93
2017-06-30T17:27:37.702Z,32.99
2017-06-30T17:28:37.670Z,34.52
2017-06-30T17:29:37.673Z,35
2017-06-30T17:30:37.715Z,35.88
2017-06-30T17:31:37.692Z,36.36
2017-06-30T17:32:37.698Z,37.3
2017-06-30T17:33:37.381Z,38.46
2017-06-30T17:34:37.708Z,39.9
2017-06-30T17:35:37.702Z,40.86
2017-06-30T17:36:37.705Z,40.96
2017-06-30T17:37:37.707Z,41.52
2017-06-30T17:38:37.722Z,42.48
2017-06-30T17:39:37.769Z,42.85
2017-06-30T17:40:37.410Z,43.14
2017-06-30T17:42:03.508Z,44.1
2017-06-30T17:42:37.744Z,44.78
2017-06-30T17:43:37.430Z,44.08
2017-06-30T17:44:37.476Z,44.68
2017-06-30T17:45:37.765Z,44.27
2017-06-30T17:46:37.773Z,43.72
2017-06-30T17:47:37.787Z,44.1
2017-06-30T17:48:37.761Z,43.91
2017-06-30T17:49:37.763Z,43.7
2017-06-30T17:50:37.767Z,45.07
2017-06-30T17:51:37.774Z,44.68
2017-06-30T17:52:37.772Z,44.68
2017-06-30T17:53:37.781Z,44.01
2017-06-30T17:54:39.687Z,43.72
2017-06-30T17:55:37.789Z,44.1
2017-06-30T17:56:37.791Z,44.01
2017-06-30T17:57:37.486Z,43.91
2017-06-30T17:58:37.798Z,44.49
2017-06-30T17:59:37.801Z,42.75
2017-06-30T18:00:37.815Z,42.75
2017-06-30T18:01:37.821Z,42.08
2017-06-30T18:02:37.822Z,43.24
2017-06-30T18:03:37.826Z,42.94
2017-06-30T18:04:37.839Z,43.14
2017-06-30T18:05:37.518Z,41.2
2017-06-30T18:06:37.831Z,40.92
2017-06-30T18:07:37.836Z,40.34
2017-06-30T18:08:37.840Z,40.34
2017-06-30T18:09:38.097Z,40.34
2017-06-30T18:10:37.848Z,40.92
2017-06-30T18:11:37.549Z,40.15
2017-06-30T18:12:37.857Z,39.95
2017-06-30T18:13:37.549Z,39.86
2017-06-30T18:14:37.866Z,39.95
2017-06-30T18:15:37.870Z,39.66
2017-06-30T18:16:37.872Z,39.47
2017-06-30T18:17:37.561Z,39.47
2017-06-30T18:18:37.566Z,39.47
2017-06-30T18:19:37.887Z,41.88
2017-06-30T18:20:37.888Z,43.62
2017-06-30T20:17:35.686Z,53.38
2017-06-30T20:18:34.890Z,53.66
2017-06-30T20:19:35.269Z,53.76
2017-06-30T20:20:34.888Z,54.24
2017-06-30T20:21:34.881Z,54.14
2017-06-30T20:22:34.882Z,54.91
2017-06-30T20:23:34.891Z,55.3
2017-06-30T20:24:34.576Z,54.63
2017-06-30T20:25:34.896Z,54.14
2017-06-30T20:26:34.893Z,54.14
2017-06-30T20:27:34.892Z,54.05
2017-06-30T20:28:34.927Z,54.34
2017-06-30T20:29:34.582Z,54.82
2017-06-30T20:30:34.614Z,55.01
2017-06-30T20:31:34.969Z,54.05
2017-06-30T20:32:35.899Z,54.34
2017-06-30T20:33:34.888Z,53.96
2017-06-30T20:34:34.581Z,54.05
2017-06-30T20:35:34.895Z,54.91
2017-06-30T20:36:34.898Z,54.34
2017-06-30T20:37:34.909Z,54.72
2017-06-30T20:38:34.598Z,54.43
2017-06-30T20:39:34.904Z,54.82
2017-06-30T20:40:34.909Z,54.53
2017-06-30T20:41:34.906Z,54.34
2017-06-30T20:42:34.909Z,54.14
2017-06-30T20:43:34.913Z,55.11
2017-06-30T20:44:34.600Z,54.82
2017-06-30T20:45:34.918Z,55.01
2017-06-30T20:46:34.606Z,54.82
2017-06-30T20:47:34.922Z,55.59
2017-06-30T20:48:34.620Z,55.27
2017-06-30T20:49:34.930Z,55.88
2017-06-30T20:50:34.923Z,55.66
2017-06-30T20:51:34.620Z,55.94
2017-06-30T20:52:34.634Z,56.71
2017-06-30T20:53:34.936Z,56.71
2017-06-30T20:54:34.937Z,57
2017-06-30T20:55:34.942Z,56.23
2017-06-30T20:56:34.640Z,57.2
2017-06-30T20:57:34.947Z,57.1
2017-06-30T20:58:35.110Z,56.52
2017-06-30T20:59:34.646Z,56.33
2017-06-30T21:00:34.956Z,56.04
2017-06-30T21:01:34.956Z,56.33
2017-06-30T21:02:34.964Z,56.23
2017-06-30T21:03:34.818Z,56.52
2017-06-30T21:04:34.969Z,57.1
2017-06-30T21:05:35.023Z,57.2
2017-06-30T21:06:34.988Z,57.39
2017-06-30T21:07:34.721Z,57.29
2017-06-30T21:08:34.987Z,58.25
2017-06-30T21:09:34.671Z,58.06
2017-06-30T21:10:34.981Z,58.83
2017-06-30T21:11:34.669Z,58.15
2017-06-30T21:12:35.033Z,58.06
2017-06-30T21:13:34.680Z,58.35
2017-06-30T21:14:35.016Z,58.15
2017-06-30T21:15:34.683Z,58.25
2017-06-30T21:16:34.685Z,58.15
2017-06-30T21:17:34.999Z,58.35
2017-06-30T21:18:37.665Z,58.35
2017-06-30T21:19:35.007Z,58.25
2017-06-30T21:20:35.053Z,58.61
2017-06-30T21:21:34.692Z,58.83
2017-06-30T21:22:34.699Z,58.51
2017-06-30T21:23:35.017Z,60.14
2017-06-30T21:24:35.029Z,59.6
2017-06-30T21:25:35.051Z,59.57
2017-06-30T21:26:34.709Z,59.41
2017-06-30T21:27:34.715Z,59.28
2017-06-30T21:28:35.033Z,59.66
2017-06-30T21:29:35.182Z,60.14
2017-06-30T21:30:35.035Z,60.05
2017-06-30T21:31:34.730Z,61.01
2017-06-30T21:32:35.056Z,60.91
2017-06-30T21:33:35.068Z,61.11
2017-06-30T21:34:34.946Z,60.91
2017-06-30T21:35:34.731Z,61.3
2017-06-30T21:36:35.054Z,61.2
2017-06-30T21:37:34.744Z,61.01
2017-06-30T21:38:35.080Z,61.3
2017-06-30T21:39:35.059Z,61.11
2017-06-30T21:40:35.065Z,61.87
2017-06-30T21:41:35.073Z,61.97
2017-06-30T21:42:35.077Z,61.94
2017-06-30T21:43:35.073Z,61.87
2017-06-30T21:44:35.077Z,62.52
2017-06-30T21:45:35.117Z,62.04
2017-06-30T21:46:35.075Z,62.04
2017-06-30T21:47:35.110Z,61.94
2017-06-30T21:48:35.104Z,62.04
2017-06-30T21:49:35.092Z,61.94
2017-06-30T21:50:35.109Z,62.61
2017-06-30T21:51:34.794Z,62.71
2017-06-30T21:52:35.101Z,62.71
2017-06-30T21:53:35.106Z,63.19
2017-06-30T21:54:34.791Z,62.9
2017-06-30T21:55:34.791Z,62.61
2017-06-30T21:56:35.135Z,63.09
2017-06-30T21:57:35.122Z,63.19
2017-06-30T21:58:35.125Z,63.48
2017-06-30T21:59:34.798Z,63.28
2017-06-30T22:00:35.121Z,63.19
2017-06-30T22:01:34.799Z,63.57
2017-06-30T22:02:34.800Z,64.15
2017-06-30T22:03:34.799Z,63.86
2017-06-30T22:04:35.119Z,64.02
2017-06-30T22:05:35.132Z,64.12
2017-06-30T22:06:35.144Z,64.79
2017-06-30T22:07:35.125Z,64.98
2017-06-30T22:08:35.151Z,65.17
2017-06-30T22:09:35.147Z,65.56
2017-06-30T22:10:35.196Z,65.94
2017-06-30T22:11:35.143Z,66.42
2017-06-30T22:12:35.147Z,65.94
2017-06-30T22:13:34.823Z,65.94
2017-06-30T22:14:35.196Z,66.52
2017-06-30T22:15:34.824Z,67
2017-06-30T22:16:35.155Z,67.19
2017-06-30T22:17:35.155Z,67.19
2017-06-30T22:18:35.164Z,67.96
2017-06-30T22:19:34.863Z,68.21
2017-06-30T22:20:35.177Z,68.63
2017-06-30T22:21:35.175Z,68.44
2017-06-30T22:22:35.173Z,69.07
2017-06-30T22:23:35.183Z,68.5
2017-06-30T22:24:35.185Z,68.79
2017-06-30T22:25:35.173Z,68.59
2017-06-30T22:26:35.183Z,69.07
2017-06-30T22:27:35.618Z,68.5
2017-06-30T22:28:34.864Z,68.4
2017-06-30T22:29:34.871Z,68.5
2017-06-30T22:30:35.191Z,68.21
2017-06-30T22:31:35.183Z,68.5
2017-06-30T22:32:35.190Z,68.5
2017-06-30T22:33:34.867Z,68.5
2017-06-30T22:34:34.866Z,68.12
2017-06-30T22:35:34.870Z,67.35
2017-06-30T22:37:00.889Z,67.63
2017-06-30T22:37:35.208Z,67.73
2017-06-30T22:38:34.875Z,67.92
2017-06-30T22:39:34.878Z,67.16
2017-06-30T22:40:35.195Z,67.16
2017-06-30T22:41:35.208Z,67.16
2017-06-30T22:42:35.209Z,67.25
2017-06-30T22:43:35.205Z,67.92
2017-06-30T22:44:35.214Z,67.16
2017-06-30T22:45:34.886Z,66.33
2017-06-30T22:46:35.224Z,66.39
2017-06-30T22:47:35.217Z,66.19
2017-06-30T22:48:35.219Z,66
2017-06-30T22:49:35.717Z,67.44
2017-06-30T22:50:35.224Z,66.13
2017-06-30T22:51:35.224Z,66.13
2017-06-30T22:52:35.218Z,66.42
2017-06-30T22:53:34.906Z,67.67
2017-06-30T22:54:35.277Z,67.47
2017-06-30T22:55:35.231Z,67.19
2017-06-30T22:56:35.242Z,67
2017-06-30T22:57:35.233Z,68.3
2017-06-30T22:58:34.913Z,67.73
2017-06-30T22:59:35.236Z,67.44
2017-06-30T23:00:35.241Z,67.47
2017-06-30T23:01:35.246Z,67.19
2017-06-30T23:02:35.249Z,67.76
2017-06-30T23:03:35.244Z,68.4
2017-06-30T23:04:35.709Z,67.16
2017-06-30T23:05:35.264Z,67.73
2017-06-30T23:06:35.259Z,67.16
2017-06-30T23:07:35.258Z,67.86
2017-06-30T23:08:34.946Z,67.76
2017-06-30T23:09:35.265Z,67.73
2017-06-30T23:10:34.938Z,67.92
2017-06-30T23:11:34.949Z,68.3
2017-06-30T23:12:35.273Z,69.17
2017-06-30T23:13:35.271Z,68.69
2017-06-30T23:14:34.943Z,68.5
2017-06-30T23:15:34.951Z,68.88
2017-06-30T23:16:35.270Z,69.36
2017-06-30T23:17:34.948Z,68.79
2017-06-30T23:18:35.272Z,69.07
2017-06-30T23:19:35.277Z,68.69
2017-06-30T23:20:35.271Z,69.36
2017-06-30T23:21:35.274Z,69.74
2017-06-30T23:22:34.959Z,68.5
2017-06-30T23:23:35.284Z,68.02
2017-06-30T23:24:35.289Z,68.24
2017-06-30T23:25:35.300Z,68.53
2017-06-30T23:26:35.291Z,68.53
2017-06-30T23:27:34.971Z,68.63
2017-06-30T23:28:35.293Z,68.53
2017-06-30T23:29:34.967Z,68.91
2017-06-30T23:30:34.979Z,68.44
2017-06-30T23:31:35.291Z,69.11
2017-06-30T23:32:35.320Z,68.53
2017-06-30T23:33:35.297Z,68.91
2017-06-30T23:34:34.980Z,68.5
2017-06-30T23:35:35.032Z,69.46
2017-06-30T23:36:35.302Z,69.74
2017-06-30T23:37:35.299Z,69.56
2017-06-30T23:38:35.300Z,69.46
2017-06-30T23:39:35.313Z,69.84
2017-06-30T23:40:34.993Z,69.65
2017-06-30T23:41:35.307Z,69.84
2017-06-30T23:42:34.994Z,69.65
2017-06-30T23:43:35.001Z,69.46
2017-06-30T23:44:35.315Z,69.46
2017-06-30T23:45:35.309Z,70.32
2017-06-30T23:46:35.350Z,70.13
2017-06-30T23:47:35.005Z,70.23
2017-06-30T23:48:35.328Z,70.23
2017-06-30T23:49:35.335Z,70.32
2017-06-30T23:50:38.574Z,70.99
2017-06-30T23:51:35.323Z,71.44
2017-06-30T23:52:35.325Z,71.34
2017-06-30T23:53:35.337Z,71.15
2017-06-30T23:54:35.335Z,71.05
2017-06-30T23:55:35.332Z,71.53
2017-06-30T23:56:35.337Z,72.49
2017-06-30T23:57:35.334Z,71.44
2017-06-30T23:58:35.329Z,71.72
2017-06-30T23:59:35.330Z,71.15
